Port William, Ohio
Current Conditions -  °F | °C
As of 5:54 PM on Thursday 27 Nov 2014 (Local Time) from KILN Reporting Station
Light Snow Light Snow  
Wind Chill: 21°   Ceiling: 2500
Heat Index: 30°   Visibility: 4mi
Dew Point: 23°   Wind: 10mph
Humidity: 75%   Direction: 300°WNW
Pressure: 30.3"   Gusts: NA
Location:  39.55°N, 83.79°W
Report Text: KILN 272254Z AUTO 30009KT 4SM -SN OVC025 M01/M05 A3030 RMK AO2 SLP289 P0000 T10111050
Loading
Personal Weather Stations






























Interactive Weather Map New forecast layout! Learn more

10-Day Weather Forecast

Advertisements
Track Severe Weather on mobile